Aérodrome :
LOGIN :

S'inscrire | Disclaimer

   EN    FR    IT 

 










Légende :    VFR   VFR Marginal   IFR   IFR Intensif   IFR Très Intensif
Visi : 
Plafond : 
>= 8 km
>= 3000ft
5 à 8 km
1000 à 3000 ft
1500m à 5 km
500 à 1000 ft
800 à 1500m
200 à 500 ft
< 800m
< 200 ft
Symboles :   Orages  Brouillard  Fortes neiges  Fortes précipitations  Vent > 20 kt
SIGMETs :   Divers  Orages  Givrage  Turbulence  Onde Orograph.  Cendres Volcan.







- Altitude de l'aérodrome : 44 ft
- Code IATA : SOU
- Voir les cartes d'approche


EGHI - Southampton

DERNIER METAR :
  • 211350Z 22006KT 170V250 9999 FEW016 SCT020 12/08 Q1027

METARs EXPIRÉS :
  • 211320Z 24005KT 190V300 9999 FEW015 SCT020 12/07 Q1027
  • 211250Z 21009KT 170V260 9999 FEW015 SCT020 12/08 Q1027
  • 211220Z 20006KT 170V250 9999 FEW015 BKN018 12/09 Q1027
  • 211150Z 24004KT 190V280 9999 FEW013 BKN016 11/08 Q1027
  • 211120Z 25006KT 200V290 9999 FEW010 BKN015 11/08 Q1027

TAF TAF EGHI
Valide du 21 à 12h jusqu'au 21 à 21h UTC


211107Z 2112/2121 22009KT 9999 BKN012
BECMG 2112/2114 SCT015
TEMPO 2114/2117 BKN014
TEMPO 2117/2121 7000 BKN008
PROB30
TEMPO 2119/2121 4500 BR BKN003
ATIS : +44 23 8062 7103
Pas de NOTAMs connus pour ce terrain.



MET'MAP, la Météo Aéronautique d'un coup d'oeil ! - Copyright ORBIFLY Décembre 2007 - Disclaimer

ORBIFLY MET'MAP TEAM :

Programmation & Développement : Alexandra Zaïnal
Conception & Développement : Baudouin d'Aumeries
Co-Programmation & Développement : Marc-Olivier Méhu
Soutien technique & logistique : Manuel Goepfert

Contact : metmap@orbifly.com




SOURCES & CREDITS :

   NOAA